Tropical Cyclones
[Index]
Main Index Home Page Stock Weather Photos Extreme Storms Discussion Storm News and Storm Chasing Reports Tropical Cyclones / Hurricanes / Typhoons Weather Data and Links Wild Fires / Bushfires Weather Observation Techniques Weather Picture Catalogue Tornado Pictures and Reports Stock Video Footage and DVDs for sale
Season 1983-1984 Tropical Cyclone WILLY Track Map
Season 1983-1984 Summaries: [BoM-AU] [JTWC-AU] [JTWC-SIO] [JTWC-SPAC] [JTWC-SH]
<<- Previous TC | BoM 1983-1984 Season | Next TC ->>

click for intensity scale information  Lat/long Grid: Show Hide

 Date Labels: Show Hide

Bureau of Meteorology Tropical Cyclone Data

Name: WILLY
Number: 652 / 198384_11

02 Feb 1984 00:00 UTC to 11 Feb 1984 00:00 UTC

    date/time    lat    long    hPa   cat  kts
1984-02-02 00   11.5   114.5   1004                     
1984-02-02 06   11.5   113.1   1004                     
1984-02-02 12   11.2   111.8   1004                     
1984-02-02 18   10.7   110.8   1005                     
1984-02-03 00   10.1   110.5   1005                     
1984-02-03 06    9.7   110.6   1004                     
1984-02-03 12    9.6   111.4   1004                     
1984-02-03 18    9.7   112.0   1004                     
1984-02-04 00    9.8   112.4   1002                     
1984-02-04 06    9.8   112.5   1002                     
1984-02-04 12   10.0   112.8   1001                     
1984-02-04 18   10.1   113.0   1001                     
1984-02-05 00   10.2   113.1   1000                     
1984-02-05 06   10.4   113.4    999                     
1984-02-05 12   10.7   113.8    998                     
1984-02-05 18   11.5   113.6    996                     
1984-02-06 00   12.2   113.0    994    1                
1984-02-06 06   12.9   111.6    992    1                
1984-02-06 12   13.4   110.8    990    1                
1984-02-06 18   13.7   110.3    985    2                
1984-02-07 00   14.3   109.4    980    2                
1984-02-07 06   14.9   108.5    975    2                
1984-02-07 12   15.3   107.7    970    3                
1984-02-07 18   15.8   106.8    970    3                
1984-02-08 00   16.6   105.8    965    3                
1984-02-08 06   17.0   104.9    960    3                
1984-02-08 12   17.5   103.7    964    3                
1984-02-08 18   17.7   102.4    964    3                
1984-02-09 00   18.3   101.2    970    3                
1984-02-09 06   19.7    99.0    980    2                
1984-02-09 12   20.1    97.0    994    1                
1984-02-09 16   20.2    96.0    996                     
1984-02-09 18   21.1    94.9   1000                     
1984-02-10 00   24.0    93.0   1002                     
1984-02-10 06   25.9    92.2   1002                     
1984-02-10 12   27.8    92.5   1004                     
1984-02-10 18   28.7    91.9   1008                     
1984-02-11 00   29.3    90.9   1008                     
Winds are 10-min average.

Tropical cyclone tracks developed by Michael Bath using data from the Bureau of Meteorology and Google Maps.


[Australian Severe Weather index] [Copyright Notice] [Email Contacts] [Search This Site] [Privacy Policy]
Document: tropical_cyclone_willy.htm Updated: 30 May 2013